createdAt,value
2018-09-27T00:00:02.315Z,10.66
2018-09-27T00:01:02.296Z,10.65
2018-09-27T00:02:02.269Z,10.55
2018-09-27T00:03:02.246Z,10.51
2018-09-27T00:04:02.225Z,10.55
2018-09-27T00:05:02.198Z,10.55
2018-09-27T00:06:02.175Z,10.52
2018-09-27T00:07:02.152Z,10.53
2018-09-27T00:08:02.129Z,10.44
2018-09-27T00:09:02.107Z,10.47
2018-09-27T00:10:02.083Z,10.44
2018-09-27T00:11:02.060Z,10.43
2018-09-27T00:12:02.039Z,10.46
2018-09-27T00:13:02.014Z,10.55
2018-09-27T00:14:01.991Z,10.43
2018-09-27T00:15:01.966Z,10.44
2018-09-27T00:16:01.944Z,10.40
2018-09-27T00:17:01.918Z,10.36
2018-09-27T00:18:01.895Z,10.36
2018-09-27T00:19:01.872Z,10.39
2018-09-27T00:20:01.851Z,10.26
2018-09-27T00:21:01.825Z,10.28
2018-09-27T00:22:03.304Z,10.39
2018-09-27T00:23:01.779Z,10.32
2018-09-27T00:24:01.756Z,10.25
2018-09-27T00:25:01.737Z,10.36
2018-09-27T00:26:01.709Z,10.34
2018-09-27T00:27:01.685Z,10.37
2018-09-27T00:28:01.662Z,10.30
2018-09-27T00:29:01.637Z,10.28
2018-09-27T00:30:01.617Z,10.32
2018-09-27T00:31:01.596Z,10.33
2018-09-27T00:32:01.569Z,10.39
2018-09-27T00:33:01.547Z,10.42
2018-09-27T00:34:01.522Z,10.39
2018-09-27T00:35:01.498Z,10.39
2018-09-27T00:36:01.476Z,10.42
2018-09-27T00:37:01.452Z,10.36
2018-09-27T00:38:01.429Z,10.36
2018-09-27T00:39:01.405Z,10.25
2018-09-27T00:40:01.381Z,10.19
2018-09-27T00:41:01.357Z,10.14
2018-09-27T00:42:01.333Z,10.24
2018-09-27T00:43:01.312Z,10.21
2018-09-27T00:44:01.293Z,10.17
2018-09-27T00:45:01.264Z,10.15
2018-09-27T00:46:01.240Z,10.22
2018-09-27T00:47:01.216Z,10.10
2018-09-27T00:48:01.193Z,10.24
2018-09-27T00:49:01.169Z,10.26
2018-09-27T00:50:01.146Z,10.28
2018-09-27T00:51:01.123Z,10.14
2018-09-27T00:52:01.103Z,10.17
2018-09-27T00:53:01.076Z,10.24
2018-09-27T00:54:01.052Z,10.34
2018-09-27T00:55:01.028Z,10.39
2018-09-27T00:56:01.004Z,10.30
2018-09-27T00:57:00.980Z,10.26
2018-09-27T00:58:00.957Z,10.24
2018-09-27T00:59:01.685Z,10.22
2018-09-27T01:00:00.910Z,10.15
2018-09-27T01:01:00.886Z,10.15
2018-09-27T01:02:00.863Z,10.24
2018-09-27T01:03:00.840Z,10.17
2018-09-27T01:04:00.817Z,10.28
2018-09-27T01:05:00.792Z,10.18
2018-09-27T01:06:00.770Z,10.17
2018-09-27T01:07:00.747Z,10.18
2018-09-27T01:08:00.722Z,10.06
2018-09-27T01:09:00.697Z,10.04
2018-09-27T01:10:00.677Z,10.01
2018-09-27T01:11:00.651Z,10.01
2018-09-27T01:12:00.628Z,9.99
2018-09-27T01:13:00.603Z,10.07
2018-09-27T01:14:00.580Z,10.09
2018-09-27T01:15:00.557Z,10.15
2018-09-27T01:16:00.533Z,10.12
2018-09-27T01:17:00.510Z,10.09
2018-09-27T01:18:00.487Z,10.04
2018-09-27T01:19:00.465Z,10.04
2018-09-27T01:20:00.439Z,10.06
2018-09-27T01:21:00.415Z,10.07
2018-09-27T01:22:00.391Z,10.10
2018-09-27T01:23:00.371Z,10.09
2018-09-27T01:24:00.345Z,10.15
2018-09-27T01:25:00.321Z,10.06
2018-09-27T01:26:00.299Z,10.06
2018-09-27T01:27:00.273Z,10.03
2018-09-27T01:28:00.251Z,10.07
2018-09-27T01:29:00.227Z,10.10
2018-09-27T01:30:00.204Z,10.07
2018-09-27T01:31:00.178Z,10.12
2018-09-27T01:32:00.155Z,10.17
2018-09-27T01:33:00.135Z,10.17
2018-09-27T01:34:00.109Z,10.14
2018-09-27T01:35:00.087Z,10.19
2018-09-27T01:36:00.061Z,10.07
2018-09-27T01:37:00.039Z,10.14
2018-09-27T01:38:00.013Z,10.18
2018-09-27T01:38:59.990Z,10.10
2018-09-27T01:39:59.966Z,10.10
2018-09-27T01:41:00.693Z,10.06
2018-09-27T01:41:59.919Z,10.09
2018-09-27T01:42:59.894Z,10.22
2018-09-27T01:43:59.871Z,10.15
2018-09-27T01:44:59.848Z,10.09
2018-09-27T01:45:59.825Z,10.10
2018-09-27T01:46:59.864Z,10.04
2018-09-27T01:47:59.778Z,10.09
2018-09-27T01:48:59.752Z,10.01
2018-09-27T01:49:59.730Z,10.07
2018-09-27T01:50:59.706Z,10.01
2018-09-27T01:51:59.682Z,10.01
2018-09-27T01:52:59.658Z,10.03
2018-09-27T01:53:59.633Z,9.96
2018-09-27T01:54:59.614Z,9.99
2018-09-27T01:55:59.589Z,10.01
2018-09-27T01:57:01.065Z,9.94
2018-09-27T01:57:59.539Z,9.94
2018-09-27T01:58:59.515Z,9.96
2018-09-27T01:59:59.492Z,9.91
2018-09-27T02:00:59.470Z,9.94
2018-09-27T02:01:59.449Z,9.91
2018-09-27T02:02:59.420Z,9.97
2018-09-27T02:03:59.402Z,9.89
2018-09-27T02:04:59.374Z,9.93
2018-09-27T02:05:59.352Z,9.91
2018-09-27T02:06:59.325Z,9.91
2018-09-27T02:07:59.301Z,9.93
2018-09-27T02:08:59.279Z,9.91
2018-09-27T02:09:59.255Z,9.93
2018-09-27T02:10:59.230Z,9.89
2018-09-27T02:13:43.763Z,9.91
2018-09-27T02:14:42.989Z,9.86
2018-09-27T02:15:42.966Z,9.88
2018-09-27T02:16:42.942Z,9.91
2018-09-27T02:17:42.918Z,9.78
2018-09-27T02:18:42.893Z,9.83
2018-09-27T02:19:42.870Z,9.78
2018-09-27T02:20:42.846Z,9.78
2018-09-27T02:21:42.822Z,9.82
2018-09-27T02:22:42.798Z,9.79
2018-09-27T02:23:42.775Z,9.78
2018-09-27T02:24:43.504Z,9.81
2018-09-27T02:25:42.727Z,9.70
2018-09-27T02:26:42.702Z,9.68
2018-09-27T02:27:42.679Z,9.71
2018-09-27T02:28:42.655Z,9.64
2018-09-27T02:29:42.632Z,9.63
2018-09-27T02:30:42.608Z,9.56
2018-09-27T02:31:42.586Z,9.57
2018-09-27T02:32:42.562Z,9.64
2018-09-27T02:33:42.563Z,9.50
2018-09-27T02:34:42.516Z,9.64
2018-09-27T02:35:43.992Z,9.71
2018-09-27T02:36:42.465Z,9.70
2018-09-27T02:37:42.444Z,9.56
2018-09-27T02:38:42.417Z,9.67
2018-09-27T02:39:42.396Z,9.61
2018-09-27T02:40:42.370Z,9.58
2018-09-27T02:41:42.345Z,9.66
2018-09-27T02:42:42.322Z,9.61
2018-09-27T02:43:42.304Z,9.68
2018-09-27T02:44:42.279Z,9.67
2018-09-27T02:45:42.251Z,9.71
2018-09-27T02:46:42.227Z,9.61
2018-09-27T02:47:42.205Z,9.61
2018-09-27T02:48:42.181Z,9.71
2018-09-27T02:49:42.157Z,9.66
2018-09-27T02:50:42.132Z,9.53
2018-09-27T02:51:42.108Z,9.60
2018-09-27T02:52:42.085Z,9.57
2018-09-27T02:53:42.062Z,9.56
2018-09-27T02:54:42.037Z,9.46
2018-09-27T02:55:42.012Z,9.49
2018-09-27T02:56:41.989Z,9.48
2018-09-27T02:57:42.716Z,9.31
2018-09-27T02:58:41.944Z,9.30
2018-09-27T02:59:41.919Z,9.38
2018-09-27T03:00:41.893Z,9.35
2018-09-27T03:01:41.869Z,9.34
2018-09-27T03:02:41.845Z,9.31
2018-09-27T03:03:41.821Z,9.32
2018-09-27T03:04:41.798Z,9.34
2018-09-27T03:05:41.774Z,9.23
2018-09-27T03:06:41.751Z,9.24
2018-09-27T03:07:41.726Z,9.23
2018-09-27T03:08:41.705Z,9.10
2018-09-27T03:09:41.679Z,9.12
2018-09-27T03:10:41.654Z,9.06
2018-09-27T03:11:41.631Z,9.04
2018-09-27T03:12:41.607Z,9.06
2018-09-27T03:13:41.599Z,9.06
2018-09-27T03:14:41.559Z,9.16
2018-09-27T03:15:41.536Z,9.16
2018-09-27T03:16:41.512Z,9.21
2018-09-27T03:17:41.487Z,9.23
2018-09-27T03:18:41.464Z,9.30
2018-09-27T03:19:41.446Z,9.16
2018-09-27T03:20:41.418Z,9.13
2018-09-27T03:21:41.392Z,9.15
2018-09-27T03:22:41.367Z,9.24
2018-09-27T03:23:42.844Z,9.21
2018-09-27T03:24:41.321Z,9.21
2018-09-27T03:25:41.295Z,9.10
2018-09-27T03:26:41.275Z,9.15
2018-09-27T03:27:41.248Z,9.21
2018-09-27T03:28:41.224Z,9.16
2018-09-27T03:29:41.199Z,9.15
2018-09-27T03:30:41.188Z,9.02
2018-09-27T03:31:41.166Z,9.05
2018-09-27T03:32:41.130Z,8.99
2018-09-27T03:33:41.103Z,9.01
2018-09-27T03:34:41.080Z,8.97
2018-09-27T03:35:41.070Z,8.90
2018-09-27T03:36:41.031Z,8.91
2018-09-27T03:37:41.009Z,8.93
2018-09-27T03:38:40.983Z,8.96
2018-09-27T03:39:41.012Z,9.01
2018-09-27T03:40:41.007Z,9.01
2018-09-27T03:41:40.911Z,9.02
2018-09-27T03:42:40.887Z,9.01
2018-09-27T03:43:40.863Z,8.99
2018-09-27T03:44:40.839Z,8.99
2018-09-27T03:45:40.816Z,8.97
2018-09-27T03:46:40.791Z,8.97
2018-09-27T03:47:40.767Z,8.91
2018-09-27T03:48:40.756Z,8.90
2018-09-27T03:49:40.730Z,8.90
2018-09-27T03:50:40.694Z,8.94
2018-09-27T03:51:40.670Z,8.93
2018-09-27T03:52:40.647Z,8.91
2018-09-27T03:53:40.622Z,8.93
2018-09-27T03:54:40.598Z,8.90
2018-09-27T03:55:40.575Z,8.99
2018-09-27T03:56:42.053Z,8.97
2018-09-27T03:57:40.525Z,8.87
2018-09-27T03:58:40.501Z,8.87
2018-09-27T03:59:40.482Z,8.83
2018-09-27T04:00:40.459Z,8.91
2018-09-27T04:01:40.430Z,8.84
2018-09-27T04:02:40.407Z,8.88
2018-09-27T04:03:40.381Z,8.86
2018-09-27T04:04:40.359Z,8.76
2018-09-27T04:05:40.333Z,8.73
2018-09-27T04:06:40.330Z,8.86
2018-09-27T04:07:40.285Z,8.81
2018-09-27T04:08:40.261Z,8.93
2018-09-27T04:09:40.239Z,8.79
2018-09-27T04:10:40.213Z,8.73
2018-09-27T04:11:40.191Z,8.88
2018-09-27T04:12:40.235Z,8.83
2018-09-27T04:13:40.141Z,8.90
2018-09-27T04:14:40.119Z,8.86
2018-09-27T04:15:40.099Z,8.76
2018-09-27T04:16:40.068Z,8.75
2018-09-27T04:17:40.043Z,8.79
2018-09-27T04:18:40.770Z,8.84
2018-09-27T04:19:39.996Z,8.83
2018-09-27T04:20:39.972Z,8.81
2018-09-27T04:21:39.954Z,8.76
2018-09-27T04:22:39.923Z,8.78
2018-09-27T04:23:39.901Z,8.72
2018-09-27T04:24:39.874Z,8.78
2018-09-27T04:25:39.852Z,8.78
2018-09-27T04:26:39.826Z,8.75
2018-09-27T04:27:39.837Z,8.76
2018-09-27T04:28:39.777Z,8.72
2018-09-27T04:29:40.504Z,8.76
2018-09-27T04:30:39.729Z,8.69
2018-09-27T04:31:39.705Z,8.79
2018-09-27T04:32:39.681Z,8.71
2018-09-27T04:33:39.679Z,8.78
2018-09-27T04:34:39.631Z,8.69
2018-09-27T04:35:39.609Z,8.75
2018-09-27T04:36:39.584Z,8.76
2018-09-27T04:37:39.560Z,8.73
2018-09-27T04:38:39.536Z,8.78
2018-09-27T04:39:39.545Z,8.76
2018-09-27T04:40:39.488Z,8.73
2018-09-27T04:41:39.463Z,8.72
2018-09-27T04:42:39.439Z,8.65
2018-09-27T04:43:39.415Z,8.72
2018-09-27T04:44:39.391Z,8.68
2018-09-27T04:45:39.396Z,8.57
2018-09-27T04:46:39.459Z,8.78
2018-09-27T04:47:39.317Z,8.72
2018-09-27T04:48:39.292Z,8.73
2018-09-27T04:49:39.267Z,8.73
2018-09-27T04:50:39.994Z,8.88
2018-09-27T04:51:39.259Z,8.73
2018-09-27T04:52:39.199Z,8.76
2018-09-27T04:53:39.171Z,8.76
2018-09-27T04:54:39.148Z,8.78
2018-09-27T04:55:39.123Z,8.76
2018-09-27T04:56:39.098Z,8.78
2018-09-27T04:57:39.074Z,8.75
2018-09-27T04:58:39.049Z,8.81
2018-09-27T04:59:39.026Z,8.75
2018-09-27T05:00:39.001Z,8.72
2018-09-27T05:01:38.975Z,8.78
2018-09-27T05:02:38.952Z,8.76
2018-09-27T05:03:38.943Z,8.75
2018-09-27T05:04:38.906Z,8.78
2018-09-27T05:05:38.920Z,8.78
2018-09-27T05:06:41.107Z,8.79
2018-09-27T05:07:38.832Z,8.86
2018-09-27T05:08:38.808Z,8.81
2018-09-27T05:09:38.897Z,8.78
2018-09-27T05:10:38.759Z,8.78
2018-09-27T05:11:38.735Z,8.84
2018-09-27T05:12:40.211Z,8.86
2018-09-27T05:13:38.687Z,8.76
2018-09-27T05:14:38.660Z,8.73
2018-09-27T05:15:38.671Z,8.83
2018-09-27T05:16:38.613Z,8.84
2018-09-27T05:17:38.589Z,8.88
2018-09-27T05:18:38.564Z,8.76
2018-09-27T05:19:38.547Z,8.73
2018-09-27T05:20:38.630Z,8.73
2018-09-27T05:21:38.541Z,8.83
2018-09-27T05:22:38.468Z,8.86
2018-09-27T05:23:38.443Z,8.90
2018-09-27T05:24:38.418Z,8.88
2018-09-27T05:25:38.394Z,8.84
2018-09-27T05:26:38.369Z,8.81
2018-09-27T05:27:38.364Z,8.90
2018-09-27T05:28:38.325Z,8.93
2018-09-27T05:29:38.297Z,8.96
2018-09-27T05:30:38.272Z,8.88
2018-09-27T05:31:38.249Z,8.96
2018-09-27T05:32:38.225Z,8.93
2018-09-27T05:33:38.265Z,9.02
2018-09-27T05:34:38.174Z,8.99
2018-09-27T05:35:38.152Z,8.93
2018-09-27T05:36:38.127Z,9.02
2018-09-27T05:37:38.103Z,8.97
2018-09-27T05:38:38.078Z,9.01
2018-09-27T05:39:38.062Z,9.04
2018-09-27T05:40:38.031Z,9.05
2018-09-27T05:41:38.003Z,9.04
2018-09-27T05:42:37.981Z,9.01
2018-09-27T05:43:37.957Z,9.09
2018-09-27T05:44:37.931Z,9.13
2018-09-27T05:45:37.912Z,9.10
2018-09-27T05:46:37.883Z,9.16
2018-09-27T05:47:37.859Z,9.16
2018-09-27T05:48:37.833Z,9.13
2018-09-27T05:49:37.809Z,9.25
2018-09-27T05:50:37.785Z,9.23
2018-09-27T05:51:37.772Z,9.25
2018-09-27T05:52:37.738Z,9.25
2018-09-27T05:53:37.716Z,9.23
2018-09-27T05:54:37.692Z,9.20
2018-09-27T05:55:37.665Z,9.23
2018-09-27T05:56:37.641Z,9.24
2018-09-27T05:57:37.683Z,9.31
2018-09-27T05:58:37.591Z,9.32
2018-09-27T05:59:37.570Z,9.34
2018-09-27T06:00:37.543Z,9.34
2018-09-27T06:01:37.519Z,9.35
2018-09-27T06:02:37.494Z,9.39
2018-09-27T06:03:37.533Z,9.39
2018-09-27T06:04:37.446Z,9.35
2018-09-27T06:05:37.422Z,9.34
2018-09-27T06:06:37.397Z,9.34
2018-09-27T06:07:37.375Z,9.48
2018-09-27T06:08:37.351Z,9.45
2018-09-27T06:09:37.350Z,9.49
2018-09-27T06:10:37.300Z,9.57
2018-09-27T06:11:37.277Z,9.56
2018-09-27T06:12:37.253Z,9.52
2018-09-27T06:13:37.228Z,9.58
2018-09-27T06:14:37.205Z,9.53
2018-09-27T06:15:37.278Z,9.57
2018-09-27T06:16:37.157Z,9.66
2018-09-27T06:17:37.133Z,9.68
2018-09-27T06:18:37.109Z,9.68
2018-09-27T06:19:37.090Z,9.79
2018-09-27T06:20:37.062Z,9.78
2018-09-27T06:21:37.098Z,9.78
2018-09-27T06:22:37.012Z,9.88
2018-09-27T06:23:36.989Z,9.81
2018-09-27T06:24:36.965Z,9.81
2018-09-27T06:25:36.941Z,9.76
2018-09-27T06:26:36.917Z,9.78
2018-09-27T06:27:36.906Z,9.82
2018-09-27T06:28:36.871Z,9.79
2018-09-27T06:29:36.844Z,9.75
2018-09-27T06:30:36.823Z,9.91
2018-09-27T06:31:36.798Z,9.91
2018-09-27T06:32:36.775Z,9.97
2018-09-27T06:33:36.864Z,9.99
2018-09-27T06:34:36.727Z,9.96
2018-09-27T06:35:36.703Z,9.96
2018-09-27T06:36:36.679Z,9.91
2018-09-27T06:37:36.654Z,9.97
2018-09-27T06:38:36.686Z,10.10
2018-09-27T06:39:36.611Z,10.06
2018-09-27T06:40:36.584Z,10.09
2018-09-27T06:41:36.560Z,10.10
2018-09-27T06:42:36.538Z,10.22
2018-09-27T06:43:36.514Z,10.21
2018-09-27T06:44:36.539Z,10.22
2018-09-27T06:45:36.466Z,10.26
2018-09-27T06:46:36.443Z,10.24
2018-09-27T06:47:36.420Z,10.33
2018-09-27T06:48:36.406Z,10.43
2018-09-27T06:49:39.380Z,10.39
2018-09-27T06:50:36.377Z,10.36
2018-09-27T06:51:36.326Z,10.43
2018-09-27T06:52:36.305Z,10.51
2018-09-27T06:53:36.279Z,10.52
2018-09-27T06:54:36.259Z,10.55
2018-09-27T06:55:38.697Z,10.59
2018-09-27T06:56:36.305Z,10.59
2018-09-27T06:57:36.186Z,10.65
2018-09-27T06:58:36.164Z,10.65
2018-09-27T06:59:36.141Z,10.71
2018-09-27T07:00:36.117Z,10.73
2018-09-27T07:01:36.094Z,10.91
2018-09-27T07:02:36.116Z,10.99
2018-09-27T07:03:36.048Z,10.94
2018-09-27T07:04:36.025Z,11.03
2018-09-27T07:05:36.001Z,11.06
2018-09-27T07:06:35.978Z,11.09
2018-09-27T07:07:35.957Z,11.24
2018-09-27T07:08:35.966Z,11.14
2018-09-27T07:09:35.911Z,11.20
2018-09-27T07:10:35.887Z,11.03
2018-09-27T07:11:35.865Z,11.11
2018-09-27T07:12:35.854Z,11.19
2018-09-27T07:13:35.818Z,11.19
2018-09-27T07:14:35.865Z,11.24
2018-09-27T07:15:35.793Z,11.25
2018-09-27T07:16:35.751Z,11.28
2018-09-27T07:17:36.477Z,11.38
2018-09-27T07:18:35.732Z,11.41
2018-09-27T07:19:35.682Z,11.39
2018-09-27T07:20:35.692Z,11.47
2018-09-27T07:21:35.636Z,11.49
2018-09-27T07:22:35.613Z,11.47
2018-09-27T07:23:35.591Z,11.54
2018-09-27T07:24:35.568Z,11.49
2018-09-27T07:25:35.545Z,11.52
2018-09-27T07:26:35.548Z,11.50
2018-09-27T07:27:35.498Z,11.57
2018-09-27T07:28:35.477Z,11.61
2018-09-27T07:29:35.453Z,11.68
2018-09-27T07:30:35.431Z,11.72
2018-09-27T07:31:35.408Z,11.77
2018-09-27T07:32:35.512Z,11.78
2018-09-27T07:33:35.362Z,11.94
2018-09-27T07:34:35.340Z,11.96
2018-09-27T07:35:35.318Z,11.89
2018-09-27T07:36:35.365Z,12.02
2018-09-27T07:37:35.272Z,12.05
2018-09-27T07:38:37.569Z,12.20
2018-09-27T07:39:35.227Z,12.19
2018-09-27T07:40:35.207Z,12.21
2018-09-27T07:41:35.182Z,12.21
2018-09-27T07:42:35.210Z,12.30
2018-09-27T07:43:35.137Z,12.39
2018-09-27T07:44:35.202Z,12.33
2018-09-27T07:45:35.092Z,12.24
2018-09-27T07:46:35.071Z,12.46
2018-09-27T07:47:35.048Z,12.48
2018-09-27T07:48:35.094Z,12.37
2018-09-27T07:49:35.002Z,12.48
2018-09-27T07:50:35.044Z,12.45
2018-09-27T07:51:34.959Z,12.51
2018-09-27T07:52:34.942Z,12.48
2018-09-27T07:53:34.914Z,12.45
2018-09-27T07:54:35.025Z,12.41
2018-09-27T07:55:35.621Z,12.46
2018-09-27T07:56:34.894Z,12.38
2018-09-27T07:57:34.825Z,12.34
2018-09-27T07:58:34.803Z,12.21
2018-09-27T07:59:34.780Z,12.26
2018-09-27T08:00:34.758Z,12.48
2018-09-27T08:01:34.735Z,12.37
2018-09-27T08:02:34.743Z,12.45
2018-09-27T08:03:34.692Z,12.62
2018-09-27T08:04:34.668Z,12.69
2018-09-27T08:05:34.645Z,12.62
2018-09-27T08:06:34.628Z,12.69
2018-09-27T08:07:34.602Z,12.78
2018-09-27T08:08:34.635Z,12.75
2018-09-27T08:09:34.556Z,12.81
2018-09-27T08:10:34.534Z,12.97
2018-09-27T08:11:34.572Z,12.95
2018-09-27T08:12:34.491Z,13.04
2018-09-27T08:13:34.469Z,13.07
2018-09-27T08:14:34.458Z,13.11
2018-09-27T08:15:34.424Z,13.21
2018-09-27T08:16:34.402Z,13.24
2018-09-27T08:17:34.380Z,13.40
2018-09-27T08:18:34.358Z,13.38
2018-09-27T08:19:34.337Z,13.51
2018-09-27T08:20:34.390Z,13.44
2018-09-27T08:21:36.544Z,13.49
2018-09-27T08:22:34.270Z,13.56
2018-09-27T08:23:34.248Z,13.61
2018-09-27T08:24:34.226Z,13.67
2018-09-27T08:25:34.204Z,13.59
2018-09-27T08:26:34.253Z,13.70
2018-09-27T08:27:35.664Z,13.71
2018-09-27T08:28:34.139Z,13.81
2018-09-27T08:29:34.116Z,13.89
2018-09-27T08:30:34.112Z,13.98
2018-09-27T08:31:34.074Z,13.95
2018-09-27T08:32:34.084Z,14.06
2018-09-27T08:33:34.780Z,14.06
2018-09-27T08:34:34.014Z,14.14
2018-09-27T08:35:33.986Z,14.13
2018-09-27T08:36:33.965Z,14.21
2018-09-27T08:37:33.943Z,14.32
2018-09-27T08:38:33.954Z,14.37
2018-09-27T08:39:33.899Z,14.39
2018-09-27T08:40:33.879Z,14.54
2018-09-27T08:41:33.857Z,14.57
2018-09-27T08:42:33.835Z,14.53
2018-09-27T08:43:33.813Z,14.53
2018-09-27T08:44:34.743Z,14.61
2018-09-27T08:45:33.921Z,14.62
2018-09-27T08:46:33.748Z,14.72
2018-09-27T08:47:33.728Z,14.88
2018-09-27T08:48:33.706Z,14.90
2018-09-27T08:49:33.683Z,15.01
2018-09-27T08:50:33.661Z,15.03
2018-09-27T08:51:33.672Z,15.06
2018-09-27T08:52:33.620Z,15.03
2018-09-27T08:53:33.597Z,15.12
2018-09-27T08:54:33.576Z,15.28
2018-09-27T08:55:33.631Z,15.26
2018-09-27T08:56:33.688Z,15.33
2018-09-27T08:57:33.579Z,15.28
2018-09-27T08:58:33.490Z,15.21
2018-09-27T08:59:33.469Z,15.42
2018-09-27T09:00:33.449Z,15.45
2018-09-27T09:01:33.490Z,15.46
2018-09-27T09:02:33.405Z,15.46
2018-09-27T09:03:33.501Z,15.46
2018-09-27T09:04:33.362Z,15.49
2018-09-27T09:05:33.340Z,15.56
2018-09-27T09:06:33.319Z,15.64
2018-09-27T09:07:33.358Z,15.67
2018-09-27T09:08:33.280Z,15.59
2018-09-27T09:09:33.261Z,15.59
2018-09-27T09:10:33.234Z,15.64
2018-09-27T09:11:33.213Z,15.63
2018-09-27T09:12:33.193Z,15.72
2018-09-27T09:13:33.234Z,15.72
2018-09-27T09:14:33.149Z,15.78
2018-09-27T09:15:33.177Z,15.81
2018-09-27T09:16:33.110Z,15.93
2018-09-27T09:17:33.085Z,15.84
2018-09-27T09:18:33.067Z,15.93
2018-09-27T09:19:33.054Z,15.88
2018-09-27T09:20:33.023Z,15.94
2018-09-27T09:21:33.060Z,16.03
2018-09-27T09:22:35.233Z,16.09
2018-09-27T09:23:32.960Z,16.09
2018-09-27T09:24:33.015Z,16.22
2018-09-27T09:25:32.949Z,16.23
2018-09-27T09:26:32.896Z,16.20
2018-09-27T09:27:32.906Z,16.04
2018-09-27T09:28:32.887Z,16.14
2018-09-27T09:29:32.858Z,16.27
2018-09-27T09:30:32.813Z,16.27
2018-09-27T09:31:32.793Z,16.38
2018-09-27T09:32:32.771Z,16.48
2018-09-27T09:33:32.787Z,16.62
2018-09-27T09:34:32.728Z,16.65
2018-09-27T09:35:32.734Z,16.62
2018-09-27T09:36:32.688Z,16.60
2018-09-27T09:37:32.666Z,16.68
2018-09-27T09:38:32.647Z,16.60
2018-09-27T09:39:32.625Z,16.70
2018-09-27T09:40:32.609Z,16.68
2018-09-27T09:41:32.584Z,16.75
2018-09-27T09:42:32.563Z,16.86
2018-09-27T09:43:32.545Z,16.88
2018-09-27T09:44:33.273Z,16.93
2018-09-27T09:45:32.501Z,16.95
2018-09-27T09:46:32.481Z,16.99
2018-09-27T09:47:32.462Z,17.00
2018-09-27T09:48:32.441Z,17.00
2018-09-27T09:49:32.418Z,16.96
2018-09-27T09:50:32.399Z,17.08
2018-09-27T09:51:32.379Z,17.13
2018-09-27T09:52:32.358Z,17.15
2018-09-27T09:53:32.338Z,17.13
2018-09-27T09:54:32.316Z,17.14
2018-09-27T09:55:32.297Z,17.32
2018-09-27T09:56:32.276Z,17.36
2018-09-27T09:57:32.258Z,17.35
2018-09-27T09:58:32.234Z,17.53
2018-09-27T09:59:32.215Z,17.54
2018-09-27T10:00:32.194Z,17.57
2018-09-27T10:01:32.173Z,17.64
2018-09-27T10:02:32.214Z,17.69
2018-09-27T10:03:32.133Z,17.67
2018-09-27T10:04:32.114Z,17.63
2018-09-27T10:05:32.093Z,17.62
2018-09-27T10:06:32.071Z,17.64
2018-09-27T10:07:32.053Z,17.55
2018-09-27T10:08:32.035Z,17.55
2018-09-27T10:09:32.011Z,17.64
2018-09-27T10:10:31.992Z,17.55
2018-09-27T10:11:31.975Z,17.66
2018-09-27T10:12:31.951Z,17.59
2018-09-27T10:13:31.930Z,17.63
2018-09-27T10:14:31.911Z,17.81
2018-09-27T10:15:31.891Z,17.74
2018-09-27T10:16:31.871Z,17.78
2018-09-27T10:17:31.849Z,17.71
2018-09-27T10:18:31.830Z,17.79
2018-09-27T10:19:31.810Z,17.87
2018-09-27T10:20:31.792Z,17.84
2018-09-27T10:21:31.786Z,17.85
2018-09-27T10:22:31.754Z,17.82
2018-09-27T10:23:31.731Z,17.85
2018-09-27T10:24:31.716Z,17.88
2018-09-27T10:25:31.690Z,17.91
2018-09-27T10:26:31.670Z,18.04
2018-09-27T10:27:31.722Z,18.15
2018-09-27T10:28:31.631Z,18.15
2018-09-27T10:29:31.611Z,18.25
2018-09-27T10:30:31.591Z,18.22
2018-09-27T10:31:31.570Z,18.24
2018-09-27T10:32:31.550Z,18.29
2018-09-27T10:33:31.530Z,18.25
2018-09-27T10:34:31.564Z,18.17
2018-09-27T10:35:31.494Z,18.24
2018-09-27T10:36:31.471Z,18.36
2018-09-27T10:37:31.450Z,18.39
2018-09-27T10:38:31.431Z,18.39
2018-09-27T10:39:31.411Z,18.42
2018-09-27T10:40:31.397Z,18.59
2018-09-27T10:41:31.372Z,18.54
2018-09-27T10:42:31.353Z,18.34
2018-09-27T10:43:31.332Z,18.36
2018-09-27T10:44:31.314Z,18.43
2018-09-27T10:45:31.292Z,18.44
2018-09-27T10:46:31.273Z,18.54
2018-09-27T10:47:31.253Z,18.55
2018-09-27T10:48:31.234Z,18.65
2018-09-27T10:49:31.214Z,18.72
2018-09-27T10:50:31.194Z,18.74
2018-09-27T10:51:31.292Z,18.62
2018-09-27T10:52:31.156Z,18.70
2018-09-27T10:53:31.135Z,18.68
2018-09-27T10:54:31.116Z,18.68
2018-09-27T10:55:31.096Z,18.67
2018-09-27T10:56:31.077Z,18.67
2018-09-27T10:57:31.057Z,18.64
2018-09-27T10:58:31.038Z,18.67
2018-09-27T10:59:31.136Z,18.65
2018-09-27T11:00:30.999Z,18.74
2018-09-27T11:01:30.979Z,18.74
2018-09-27T11:02:30.962Z,18.83
2018-09-27T11:03:30.940Z,18.84
2018-09-27T11:04:30.921Z,18.97
2018-09-27T11:05:30.967Z,19.06
2018-09-27T11:06:30.881Z,18.98
2018-09-27T11:07:30.865Z,18.99
2018-09-27T11:08:30.844Z,18.98
2018-09-27T11:09:30.825Z,19.10
2018-09-27T11:10:30.804Z,19.13
2018-09-27T11:11:30.844Z,19.18
2018-09-27T11:12:30.766Z,19.18
2018-09-27T11:13:30.747Z,19.06
2018-09-27T11:14:30.728Z,19.06
2018-09-27T11:15:31.459Z,19.11
2018-09-27T11:16:30.709Z,19.25
2018-09-27T11:17:30.670Z,19.18
2018-09-27T11:18:30.649Z,19.29
2018-09-27T11:19:30.631Z,19.42
2018-09-27T11:20:30.611Z,19.36
2018-09-27T11:21:30.591Z,19.29
2018-09-27T11:22:30.573Z,19.36
2018-09-27T11:23:30.555Z,19.40
2018-09-27T11:24:30.535Z,19.46
2018-09-27T11:25:30.517Z,19.43
2018-09-27T11:26:30.496Z,19.43
2018-09-27T11:27:30.546Z,19.43
2018-09-27T11:28:30.459Z,19.43
2018-09-27T11:29:30.441Z,19.63
2018-09-27T11:30:30.423Z,19.58
2018-09-27T11:31:30.401Z,19.48
2018-09-27T11:32:30.383Z,19.57
2018-09-27T11:33:30.363Z,19.50
2018-09-27T11:34:30.344Z,19.58
2018-09-27T11:35:30.325Z,19.66
2018-09-27T11:36:30.308Z,19.75
2018-09-27T11:37:30.287Z,19.75
2018-09-27T11:38:30.327Z,19.80
2018-09-27T11:39:30.250Z,19.88
2018-09-27T11:40:30.231Z,19.94
2018-09-27T11:41:30.212Z,19.93
2018-09-27T11:42:30.292Z,19.98
2018-09-27T11:43:30.174Z,20.08
2018-09-27T11:44:30.157Z,20.05
2018-09-27T11:45:30.138Z,20.09
2018-09-27T11:46:30.117Z,19.98
2018-09-27T11:47:30.098Z,20.03
2018-09-27T11:48:30.081Z,20.20
2018-09-27T11:49:30.130Z,20.35
2018-09-27T11:50:30.045Z,20.31
2018-09-27T11:51:30.029Z,20.25
2018-09-27T11:52:30.006Z,20.35
2018-09-27T11:53:29.987Z,20.24
2018-09-27T11:54:29.967Z,20.34
2018-09-27T11:55:29.950Z,20.31
2018-09-27T11:56:29.931Z,20.41
2018-09-27T11:57:29.912Z,20.42
2018-09-27T11:58:29.892Z,20.53
2018-09-27T11:59:29.875Z,20.35
2018-09-27T12:00:29.890Z,20.47
2018-09-27T12:01:29.857Z,20.49
2018-09-27T12:02:29.819Z,20.56
2018-09-27T12:03:29.800Z,20.64
2018-09-27T12:04:29.781Z,20.64
2018-09-27T12:05:29.762Z,20.74
2018-09-27T12:06:29.773Z,20.80
2018-09-27T12:07:29.796Z,20.86
2018-09-27T12:08:29.752Z,20.81
2018-09-27T12:09:29.698Z,20.80
2018-09-27T12:10:29.671Z,20.86
2018-09-27T12:11:29.655Z,20.83
2018-09-27T12:12:29.636Z,20.83
2018-09-27T12:13:31.970Z,20.80
2018-09-27T12:14:29.616Z,20.81
2018-09-27T12:15:29.580Z,20.93
2018-09-27T12:16:29.562Z,20.91
2018-09-27T12:17:29.553Z,20.98
2018-09-27T12:18:29.523Z,21.01
2018-09-27T12:19:29.526Z,21.01
2018-09-27T12:20:29.486Z,20.99
2018-09-27T12:21:29.469Z,21.14
2018-09-27T12:22:29.450Z,21.19
2018-09-27T12:23:29.433Z,21.11
2018-09-27T12:24:29.415Z,21.13
2018-09-27T12:25:29.407Z,21.16
2018-09-27T12:26:29.379Z,21.17
2018-09-27T12:27:29.359Z,21.20
2018-09-27T12:28:29.345Z,21.26
2018-09-27T12:29:29.324Z,21.30
2018-09-27T12:30:29.305Z,21.26
2018-09-27T12:31:29.287Z,21.32
2018-09-27T12:32:29.276Z,21.34
2018-09-27T12:33:29.251Z,21.35
2018-09-27T12:34:29.232Z,21.39
2018-09-27T12:35:29.214Z,21.36
2018-09-27T12:36:29.250Z,21.39
2018-09-27T12:37:29.182Z,21.44
2018-09-27T12:38:29.261Z,21.39
2018-09-27T12:39:29.162Z,21.48
2018-09-27T12:40:29.188Z,21.54
2018-09-27T12:41:29.148Z,21.51
2018-09-27T12:42:29.173Z,21.60
2018-09-27T12:43:29.072Z,21.63
2018-09-27T12:44:29.053Z,21.69
2018-09-27T12:45:29.143Z,21.69
2018-09-27T12:46:29.138Z,21.61
2018-09-27T12:47:28.999Z,21.45
2018-09-27T12:48:29.060Z,21.48
2018-09-27T12:49:28.963Z,21.41
2018-09-27T12:50:29.726Z,21.56
2018-09-27T12:51:29.106Z,21.63
2018-09-27T12:52:29.017Z,21.64
2018-09-27T12:53:28.909Z,21.71
2018-09-27T12:54:28.874Z,21.75
2018-09-27T12:55:28.858Z,21.81
2018-09-27T12:56:28.839Z,21.85
2018-09-27T12:57:28.822Z,21.90
2018-09-27T12:58:28.867Z,21.95
2018-09-27T12:59:28.785Z,21.98
2018-09-27T13:00:28.768Z,21.95
2018-09-27T13:01:28.823Z,21.82
2018-09-27T13:02:28.836Z,21.79